Time;durP1;ratioP1;P1;durP2;ratioP2;P2;SDS_P1;SDS_P2;PMS_P1;PMS_P2;Temp;Humidity;BMP_temperature;BMP_pressure;BME280_temperature;BME280_humidity;BME280_pressure;Samples;Min_cycle;Max_cycle;Signal;HPM_P1;HPM_P2
2023/03/27 00:00:15;;;;;;;0.45;0.30;;;8.00;83.20;;;;;;5942980;23;20053;-80
2023/03/27 00:02:41;;;;;;;0.30;0.30;;;8.00;83.20;;;;;;5961656;23;20014;-80
2023/03/27 00:05:07;;;;;;;1.48;0.25;;;8.00;83.20;;;;;;5962921;23;20022;-81
2023/03/27 00:07:34;;;;;;;0.38;0.30;;;8.00;83.20;;;;;;5959523;23;20026;-80
2023/03/27 00:10:00;;;;;;;2.67;0.38;;;7.90;83.10;;;;;;5984893;23;20022;-79
2023/03/27 00:12:26;;;;;;;1.30;0.50;;;7.90;83.20;;;;;;5938245;23;20029;-80
2023/03/27 00:14:52;;;;;;;1.25;0.30;;;7.90;83.20;;;;;;5962787;23;20018;-80
2023/03/27 00:17:18;;;;;;;1.40;0.65;;;7.90;83.20;;;;;;5984734;23;20031;-80
2023/03/27 00:19:43;;;;;;;2.03;0.50;;;7.90;83.10;;;;;;5984412;23;20252;-79
2023/03/27 00:22:09;;;;;;;1.60;0.60;;;7.80;83.00;;;;;;5962278;23;20097;-79
2023/03/27 00:24:35;;;;;;;1.50;0.50;;;7.80;83.00;;;;;;5961092;23;20026;-79
2023/03/27 00:27:01;;;;;;;1.60;0.60;;;7.70;82.80;;;;;;5962238;23;20029;-80
2023/03/27 00:29:27;;;;;;;2.53;0.68;;;7.70;82.80;;;;;;5985649;23;20025;-80
2023/03/27 00:31:52;;;;;;;2.25;0.47;;;7.60;82.70;;;;;;5983960;23;20022;-80
2023/03/27 00:34:18;;;;;;;2.35;0.68;;;7.60;82.80;;;;;;5962321;23;20022;-79
2023/03/27 00:36:47;;;;;;;1.00;0.70;;;7.60;83.00;;;;;;5962036;23;20310;-80
2023/03/27 00:39:13;;;;;;;2.90;0.60;;;7.60;83.00;;;;;;5962358;23;20014;-79
2023/03/27 00:41:38;;;;;;;2.03;0.52;;;7.60;83.00;;;;;;5963611;23;20089;-80
2023/03/27 00:44:20;;;;;;;1.17;0.68;;;7.50;83.00;;;;;;5963282;23;20053;-79
2023/03/27 00:46:48;;;;;;;1.52;0.57;;;7.50;83.00;;;;;;5985531;23;20026;-79
2023/03/27 00:49:14;;;;;;;1.67;1.00;;;7.50;83.00;;;;;;5986853;23;20018;-81
2023/03/27 00:51:40;;;;;;;1.92;1.00;;;7.50;82.90;;;;;;5983323;23;20117;-80
2023/03/27 00:54:06;;;;;;;1.77;1.08;;;7.40;82.90;;;;;;5965439;23;20150;-80
2023/03/27 00:56:32;;;;;;;3.30;0.90;;;7.40;82.90;;;;;;5987246;23;20130;-80
2023/03/27 00:58:59;;;;;;;3.75;0.98;;;7.40;83.00;;;;;;5989010;23;20018;-80
2023/03/27 01:01:26;;;;;;;1.20;0.85;;;7.40;83.00;;;;;;5968123;23;20157;-79
2023/03/27 01:03:52;;;;;;;2.33;0.75;;;7.30;82.90;;;;;;5963417;23;20026;-79
2023/03/27 01:06:17;;;;;;;1.67;0.95;;;7.30;83.00;;;;;;5964263;23;20437;-80
2023/03/27 01:08:44;;;;;;;1.10;0.85;;;7.30;83.10;;;;;;5963746;23;20632;-79
2023/03/27 01:11:34;;;;;;;2.08;0.73;;;7.30;83.10;;;;;;5960690;23;21416;-79
2023/03/27 01:14:07;;;;;;;1.88;0.80;;;7.20;83.10;;;;;;5966050;23;20032;-79
2023/03/27 01:16:45;;;;;;;1.23;0.70;;;7.30;83.30;;;;;;5961310;23;20022;-80
2023/03/27 01:19:38;;;;;;;1.92;0.90;;;7.20;83.20;;;;;;5937457;23;20010;-80
2023/03/27 01:22:18;;;;;;;3.58;0.77;;;7.20;83.20;;;;;;5964568;23;20049;-79
2023/03/27 01:25:14;;;;;;;3.90;0.90;;;7.20;83.10;;;;;;5985768;23;20029;-81
2023/03/27 01:27:51;;;;;;;2.33;0.90;;;7.20;83.10;;;;;;5981591;23;20073;-79
2023/03/27 01:30:19;;;;;;;3.33;0.70;;;7.20;83.10;;;;;;5983131;23;20507;-80
2023/03/27 01:33:17;;;;;;;1.73;0.93;;;7.10;83.00;;;;;;5963436;23;20029;-80
2023/03/27 01:36:01;;;;;;;4.13;1.02;;;7.10;83.20;;;;;;5966276;23;20045;-79
2023/03/27 01:38:54;;;;;;;3.55;0.98;;;7.10;83.20;;;;;;5962333;23;20105;-79
2023/03/27 01:41:26;;;;;;;2.78;1.00;;;7.10;83.20;;;;;;5979967;23;20442;-80
2023/03/27 01:44:29;;;;;;;8.35;1.83;;;7.00;82.90;;;;;;5964325;23;20591;-80
2023/03/27 01:47:06;;;;;;;5.20;1.38;;;7.00;83.00;;;;;;5976667;23;20042;-80
2023/03/27 01:49:38;;;;;;;5.53;1.63;;;6.90;83.00;;;;;;5961960;23;20033;-80
2023/03/27 01:52:07;;;;;;;4.35;1.38;;;6.90;82.90;;;;;;5959876;23;20299;-81
2023/03/27 01:54:42;;;;;;;3.97;1.20;;;6.80;82.90;;;;;;5963314;23;20428;-79
2023/03/27 01:57:27;;;;;;;4.60;1.42;;;6.80;83.00;;;;;;5987205;23;20081;-80
2023/03/27 02:00:00;;;;;;;8.88;1.80;;;6.80;83.20;;;;;;5965788;23;20046;-79
2023/03/27 02:02:27;;;;;;;6.45;1.50;;;6.80;83.10;;;;;;5961722;23;20026;-80
2023/03/27 02:04:58;;;;;;;8.60;1.90;;;6.70;83.00;;;;;;5982387;23;20022;-80
2023/03/27 02:07:37;;;;;;;6.30;1.58;;;6.70;83.10;;;;;;5940650;23;20457;-80
2023/03/27 02:10:04;;;;;;;6.63;1.23;;;6.70;83.20;;;;;;5939208;23;20022;-80
2023/03/27 02:12:31;;;;;;;4.80;1.40;;;6.70;83.20;;;;;;5961896;23;20060;-80
2023/03/27 02:15:06;;;;;;;5.60;1.42;;;6.70;83.10;;;;;;5963782;23;20073;-79
2023/03/27 02:17:32;;;;;;;2.85;1.00;;;6.60;83.20;;;;;;5960862;23;20029;-80
2023/03/27 02:20:25;;;;;;;4.28;1.30;;;6.60;83.10;;;;;;5961306;23;20144;-80
2023/03/27 02:22:52;;;;;;;5.40;2.00;;;6.50;82.90;;;;;;5962309;23;20022;-79
2023/03/27 02:25:22;;;;;;;7.40;1.40;;;6.60;83.00;;;;;;5962148;23;20022;-79
2023/03/27 02:27:50;;;;;;;5.15;1.42;;;6.50;83.00;;;;;;5983730;23;20029;-79
2023/03/27 02:30:40;;;;;;;3.85;1.45;;;6.50;83.00;;;;;;5962165;23;20362;-80
2023/03/27 02:33:15;;;;;;;5.68;1.55;;;6.50;83.00;;;;;;5983186;23;20029;-80
2023/03/27 02:36:20;;;;;;;8.23;1.63;;;6.50;82.90;;;;;;5960502;23;20022;-80
2023/03/27 02:38:53;;;;;;;7.05;1.45;;;6.40;82.80;;;;;;5962505;23;20062;-80
2023/03/27 02:41:20;;;;;;;8.90;1.55;;;6.40;82.80;;;;;;5966179;23;20096;-79
2023/03/27 02:44:24;;;;;;;5.88;1.55;;;6.40;82.80;;;;;;5960868;23;20054;-80
2023/03/27 02:47:00;;;;;;;7.50;1.70;;;6.30;82.80;;;;;;5962284;23;20542;-79
2023/03/27 02:49:30;;;;;;;4.68;1.52;;;6.30;82.80;;;;;;5981380;23;20098;-79
2023/03/27 02:51:59;;;;;;;5.70;1.40;;;6.20;82.70;;;;;;5962022;23;20034;-80
2023/03/27 02:54:28;;;;;;;4.05;1.40;;;6.10;82.70;;;;;;5960188;23;20043;-79
2023/03/27 02:56:59;;;;;;;7.45;1.50;;;6.10;82.90;;;;;;5959397;23;20085;-79
2023/03/27 02:59:26;;;;;;;;;;;6.10;83.00;;;;;;5985622;23;20090;-79
2023/03/27 03:01:53;;;;;;;4.22;1.40;;;6.20;83.10;;;;;;5962194;23;19929;-80
2023/03/27 03:04:20;;;;;;;5.85;1.55;;;6.20;83.00;;;;;;5961787;23;20428;-79
2023/03/27 03:06:46;;;;;;;9.10;1.67;;;6.20;82.90;;;;;;5962079;23;20457;-80
2023/03/27 03:09:13;;;;;;;4.88;1.50;;;6.10;82.70;;;;;;5937992;23;20030;-79
2023/03/27 03:11:48;;;;;;;5.95;1.55;;;6.10;82.60;;;;;;5960422;23;20045;-79
2023/03/27 03:14:13;;;;;;;4.90;1.20;;;6.00;82.60;;;;;;5984071;23;20018;-80
2023/03/27 03:16:39;;;;;;;2.65;1.20;;;6.00;82.60;;;;;;5961405;23;20472;-79
2023/03/27 03:19:05;;;;;;;7.50;1.48;;;5.90;82.50;;;;;;5964968;23;20441;-79
2023/03/27 03:21:30;;;;;;;7.25;1.83;;;5.90;82.50;;;;;;5962175;23;20673;-79
2023/03/27 03:23:56;;;;;;;6.50;1.60;;;5.80;82.30;;;;;;5962550;23;20018;-79
2023/03/27 03:26:22;;;;;;;9.13;1.45;;;5.80;82.40;;;;;;5983883;23;20089;-79
2023/03/27 03:28:47;;;;;;;7.22;1.85;;;5.80;82.60;;;;;;5960260;23;20026;-79
2023/03/27 03:31:13;;;;;;;6.10;1.80;;;5.80;82.70;;;;;;5985329;23;20393;-79
2023/03/27 03:33:39;;;;;;;12.73;1.98;;;5.70;82.60;;;;;;5937797;23;20025;-79
2023/03/27 03:36:05;;;;;;;3.75;1.42;;;5.70;82.60;;;;;;5962184;23;20026;-79
2023/03/27 03:38:30;;;;;;;5.72;1.42;;;5.70;82.60;;;;;;5960113;23;20116;-79
2023/03/27 03:40:57;;;;;;;6.85;1.67;;;5.70;82.70;;;;;;5959541;23;20104;-79
2023/03/27 03:43:24;;;;;;;6.65;1.50;;;5.70;82.70;;;;;;5983696;23;20026;-79
2023/03/27 03:45:49;;;;;;;5.88;1.48;;;5.70;82.70;;;;;;5984734;23;20034;-79
2023/03/27 03:48:15;;;;;;;5.57;1.52;;;5.70;82.80;;;;;;5962802;23;20017;-79
2023/03/27 03:50:42;;;;;;;8.13;1.60;;;5.70;82.70;;;;;;5961900;23;21089;-78
2023/03/27 03:53:07;;;;;;;4.72;1.50;;;5.70;82.60;;;;;;5964760;23;20022;-79
2023/03/27 03:55:33;;;;;;;4.82;1.55;;;5.60;82.50;;;;;;5984148;23;20096;-79
2023/03/27 03:57:58;;;;;;;8.90;1.80;;;5.60;82.50;;;;;;5963631;23;20034;-79
2023/03/27 04:00:24;;;;;;;6.20;1.70;;;5.60;82.50;;;;;;5962626;23;20022;-79
2023/03/27 04:02:53;;;;;;;4.95;1.40;;;5.50;82.30;;;;;;5939257;23;20397;-79
2023/03/27 04:05:19;;;;;;;9.15;1.50;;;5.50;82.30;;;;;;5984358;23;20018;-79
2023/03/27 04:07:45;;;;;;;7.40;1.45;;;5.40;82.20;;;;;;5961812;23;20033;-79
2023/03/27 04:10:12;;;;;;;7.25;1.45;;;5.40;82.10;;;;;;5983337;23;20030;-79
2023/03/27 04:12:38;;;;;;;5.40;1.30;;;5.40;82.10;;;;;;5962359;23;20643;-79
2023/03/27 04:15:04;;;;;;;7.15;1.58;;;5.30;82.00;;;;;;5937083;23;20432;-80
2023/03/27 04:17:32;;;;;;;5.13;1.65;;;5.30;82.20;;;;;;5963106;23;20026;-80
2023/03/27 04:19:58;;;;;;;4.72;1.55;;;5.30;82.30;;;;;;5964277;23;20026;-79
2023/03/27 04:22:25;;;;;;;9.48;1.75;;;5.20;82.20;;;;;;5983686;23;20110;-79
2023/03/27 04:24:52;;;;;;;5.97;1.60;;;5.20;82.20;;;;;;5962202;23;21297;-79
2023/03/27 04:27:19;;;;;;;5.50;1.75;;;5.20;82.20;;;;;;5963002;23;20075;-79
2023/03/27 04:29:46;;;;;;;7.60;1.70;;;5.10;82.10;;;;;;5938731;23;20030;-80
2023/03/27 04:32:17;;;;;;;6.47;1.50;;;5.10;82.20;;;;;;5984179;23;20590;-79
2023/03/27 04:34:44;;;;;;;4.20;1.42;;;5.00;82.20;;;;;;5958286;23;20209;-79
2023/03/27 04:37:09;;;;;;;3.85;1.08;;;5.00;82.20;;;;;;5957394;23;20022;-79
2023/03/27 04:39:41;;;;;;;7.07;1.30;;;5.00;82.30;;;;;;5960674;23;20076;-79
2023/03/27 04:42:07;;;;;;;4.47;1.30;;;5.00;82.20;;;;;;5960110;23;20076;-79
2023/03/27 04:44:33;;;;;;;7.22;1.63;;;5.00;82.20;;;;;;5985069;23;20401;-80
2023/03/27 04:47:00;;;;;;;3.80;1.25;;;5.00;82.10;;;;;;5982167;23;20032;-79
2023/03/27 04:49:26;;;;;;;7.13;1.50;;;4.90;82.00;;;;;;5962497;23;20576;-79
2023/03/27 04:51:52;;;;;;;6.15;1.42;;;4.90;82.00;;;;;;5962011;23;20030;-80
2023/03/27 04:54:17;;;;;;;2.97;1.48;;;4.80;81.90;;;;;;5987202;23;20022;-79
2023/03/27 04:56:44;;;;;;;8.43;1.30;;;4.80;82.00;;;;;;5985804;23;20029;-79
2023/03/27 04:59:09;;;;;;;3.72;1.20;;;4.80;82.00;;;;;;5966236;23;20468;-79
2023/03/27 05:01:35;;;;;;;6.75;1.52;;;4.80;82.10;;;;;;5989069;23;20033;-80
2023/03/27 05:04:03;;;;;;;6.13;1.30;;;4.70;82.10;;;;;;5941072;23;20093;-79
2023/03/27 05:06:29;;;;;;;5.95;1.10;;;4.70;82.00;;;;;;5963097;23;20045;-78
2023/03/27 05:08:55;;;;;;;5.90;1.27;;;4.70;82.10;;;;;;5961049;23;20018;-79
2023/03/27 05:11:20;;;;;;;7.35;1.58;;;4.70;82.30;;;;;;5986144;23;20072;-78
2023/03/27 05:13:46;;;;;;;4.07;1.33;;;4.70;82.30;;;;;;5962065;23;20102;-80
2023/03/27 05:16:11;;;;;;;4.75;1.42;;;4.60;82.20;;;;;;5969274;23;20100;-79
2023/03/27 05:18:37;;;;;;;4.13;1.80;;;4.60;82.20;;;;;;5988325;23;20314;-79
2023/03/27 05:21:03;;;;;;;2.67;1.17;;;4.50;82.20;;;;;;5990349;23;21037;-78
2023/03/27 05:23:28;;;;;;;5.38;1.30;;;4.50;82.30;;;;;;5934475;23;20030;-79
2023/03/27 05:25:57;;;;;;;6.95;1.33;;;4.50;82.40;;;;;;5964613;23;20066;-79
2023/03/27 05:28:22;;;;;;;5.75;1.00;;;4.50;82.40;;;;;;5962289;23;20030;-79
2023/03/27 05:30:48;;;;;;;5.78;1.80;;;4.40;82.30;;;;;;5963958;23;20380;-79
2023/03/27 05:33:15;;;;;;;5.00;1.20;;;4.40;82.40;;;;;;5988115;23;20021;-79
2023/03/27 05:35:41;;;;;;;3.55;1.17;;;4.40;82.50;;;;;;5962631;23;20026;-79
2023/03/27 05:38:07;;;;;;;4.00;1.00;;;4.40;82.50;;;;;;5964091;23;20022;-79
2023/03/27 05:40:33;;;;;;;5.63;1.27;;;4.40;82.50;;;;;;5964103;23;20029;-79
2023/03/27 05:42:59;;;;;;;3.35;1.10;;;4.30;82.30;;;;;;5942038;23;20018;-79
2023/03/27 05:45:24;;;;;;;2.88;1.00;;;4.30;82.30;;;;;;5941433;23;20530;-79
2023/03/27 05:47:52;;;;;;;3.58;1.02;;;4.30;82.20;;;;;;5964021;23;20026;-78
2023/03/27 05:50:18;;;;;;;3.20;1.23;;;4.20;82.20;;;;;;5986090;23;20065;-79
2023/03/27 05:52:44;;;;;;;6.25;0.90;;;4.20;82.30;;;;;;5963268;23;20072;-79
2023/03/27 05:55:10;;;;;;;5.88;1.10;;;4.20;82.50;;;;;;5966529;23;20030;-79
2023/03/27 05:57:37;;;;;;;3.95;0.93;;;4.20;82.60;;;;;;5938091;23;20030;-79
2023/03/27 06:00:09;;;;;;;4.32;1.00;;;4.30;82.70;;;;;;5986199;23;20018;-79
2023/03/27 06:02:34;;;;;;;6.05;1.45;;;4.30;83.30;;;;;;5962545;23;20088;-79
2023/03/27 06:05:00;;;;;;;9.10;1.45;;;4.30;82.50;;;;;;5963480;23;20018;-79
2023/03/27 06:07:26;;;;;;;3.53;1.00;;;4.30;82.40;;;;;;5964289;23;20385;-78
2023/03/27 06:09:52;;;;;;;5.72;0.95;;;4.30;82.40;;;;;;5961953;23;20022;-78
2023/03/27 06:12:18;;;;;;;5.63;1.33;;;4.30;82.30;;;;;;5962423;23;20033;-79
2023/03/27 06:14:44;;;;;;;4.97;1.20;;;4.30;82.30;;;;;;5964645;23;20472;-78
2023/03/27 06:17:09;;;;;;;4.35;1.00;;;4.30;82.10;;;;;;5963833;23;20022;-79
2023/03/27 06:19:35;;;;;;;2.80;0.70;;;4.40;82.30;;;;;;5965646;23;20045;-78
2023/03/27 06:22:00;;;;;;;3.85;0.90;;;4.40;82.30;;;;;;5986446;23;20436;-79
2023/03/27 06:24:26;;;;;;;8.40;1.42;;;4.40;82.20;;;;;;5964501;23;20023;-78
2023/03/27 06:26:52;;;;;;;4.22;1.15;;;4.40;82.00;;;;;;5963692;23;20500;-78
2023/03/27 06:29:17;;;;;;;6.38;2.05;;;4.40;81.90;;;;;;5964193;23;20022;-79
2023/03/27 06:31:43;;;;;;;7.45;1.05;;;4.50;82.00;;;;;;5963816;23;20018;-79
2023/03/27 06:34:09;;;;;;;3.22;1.05;;;4.50;81.90;;;;;;5984175;23;20042;-79
2023/03/27 06:36:35;;;;;;;5.80;1.05;;;4.60;82.00;;;;;;5984261;23;20022;-78
2023/03/27 06:39:03;;;;;;;7.53;0.98;;;4.60;81.90;;;;;;5961927;23;20022;-79
2023/03/27 06:41:28;;;;;;;3.63;0.90;;;4.60;81.70;;;;;;5961172;23;20101;-79
2023/03/27 06:43:54;;;;;;;7.68;1.40;;;4.60;81.50;;;;;;5965167;23;20556;-78
2023/03/27 06:46:19;;;;;;;7.55;1.45;;;4.70;81.50;;;;;;5960903;23;20125;-79
2023/03/27 06:48:46;;;;;;;6.07;1.67;;;4.70;81.30;;;;;;5961915;23;20128;-79
2023/03/27 06:51:12;;;;;;;5.10;0.73;;;4.70;81.30;;;;;;5985792;23;20022;-79
2023/03/27 06:53:37;;;;;;;1.40;0.57;;;4.80;81.30;;;;;;5983908;23;20018;-79
2023/03/27 06:56:03;;;;;;;7.45;2.00;;;4.80;81.10;;;;;;5968067;23;20022;-79
2023/03/27 06:58:28;;;;;;;5.38;0.98;;;4.90;81.10;;;;;;5985650;23;20037;-80
2023/03/27 07:00:54;;;;;;;6.78;1.30;;;4.90;80.90;;;;;;5962025;23;20105;-79
2023/03/27 07:03:21;;;;;;;4.13;1.13;;;5.00;80.80;;;;;;5962782;23;20121;-79
2023/03/27 07:05:47;;;;;;;4.70;1.00;;;5.10;80.80;;;;;;5973852;23;20769;-79
2023/03/27 07:08:13;;;;;;;2.28;0.80;;;5.20;81.50;;;;;;5940160;23;20150;-79
2023/03/27 07:10:39;;;;;;;7.45;1.30;;;5.20;80.40;;;;;;5961601;23;20044;-79
2023/03/27 07:13:05;;;;;;;5.93;1.20;;;5.20;80.20;;;;;;5963880;23;20516;-79
2023/03/27 07:15:30;;;;;;;8.73;1.30;;;5.30;80.00;;;;;;5961431;23;20022;-80
2023/03/27 07:17:57;;;;;;;7.07;0.90;;;5.30;79.80;;;;;;5963392;23;20041;-79
2023/03/27 07:20:23;;;;;;;7.13;1.10;;;5.30;79.70;;;;;;5962752;23;20465;-79
2023/03/27 07:22:49;;;;;;;3.90;0.98;;;5.40;79.80;;;;;;5981409;23;20540;-79
2023/03/27 07:25:15;;;;;;;4.57;0.95;;;5.50;79.80;;;;;;5962896;23;20116;-80
2023/03/27 07:27:41;;;;;;;4.90;0.90;;;5.60;79.50;;;;;;5981634;23;20026;-79
2023/03/27 07:30:07;;;;;;;4.90;0.75;;;5.60;79.40;;;;;;5986398;23;20017;-80
2023/03/27 07:32:34;;;;;;;4.90;1.00;;;5.80;79.40;;;;;;5963399;23;20026;-79
2023/03/27 07:34:59;;;;;;;3.17;1.15;;;5.80;79.30;;;;;;5962642;23;20472;-79
2023/03/27 07:37:25;;;;;;;2.90;0.50;;;5.90;79.20;;;;;;5984045;23;20141;-80
2023/03/27 07:39:50;;;;;;;3.85;0.82;;;6.00;78.80;;;;;;5982389;23;20038;-79
2023/03/27 07:42:16;;;;;;;5.63;0.85;;;6.10;78.70;;;;;;5986525;23;20028;-80
2023/03/27 07:44:42;;;;;;;3.45;1.00;;;6.20;78.70;;;;;;5983921;23;20562;-80
2023/03/27 07:47:07;;;;;;;3.95;0.98;;;6.30;78.60;;;;;;5960897;23;20030;-79
2023/03/27 07:49:33;;;;;;;7.20;1.05;;;6.50;78.60;;;;;;5963708;23;20059;-79
2023/03/27 07:51:59;;;;;;;5.15;1.17;;;6.60;78.60;;;;;;5964144;23;20045;-79
2023/03/27 07:54:25;;;;;;;3.72;0.90;;;6.70;78.40;;;;;;5986207;23;20014;-79
2023/03/27 07:56:51;;;;;;;7.82;1.15;;;6.80;78.80;;;;;;5962309;23;20080;-79
2023/03/27 07:59:19;;;;;;;4.20;0.98;;;6.90;77.50;;;;;;5985405;23;20025;-79
2023/03/27 08:01:45;;;;;;;5.00;0.80;;;7.00;77.00;;;;;;5962036;23;20017;-79
2023/03/27 08:04:10;;;;;;;3.97;0.90;;;7.00;76.60;;;;;;5935713;23;20045;-80
2023/03/27 08:06:36;;;;;;;7.63;1.17;;;7.10;76.70;;;;;;5985300;23;20022;-79
2023/03/27 08:09:02;;;;;;;5.97;1.40;;;7.30;76.90;;;;;;5937121;23;20441;-79
2023/03/27 08:11:28;;;;;;;2.38;0.73;;;7.40;76.90;;;;;;5963141;23;20543;-80
2023/03/27 08:13:53;;;;;;;11.73;1.52;;;7.60;76.60;;;;;;5962639;23;20045;-79
2023/03/27 08:16:19;;;;;;;5.05;0.90;;;7.80;76.40;;;;;;5985143;23;20045;-79
2023/03/27 08:18:45;;;;;;;2.33;0.80;;;7.90;76.10;;;;;;5964130;23;20105;-81
2023/03/27 08:21:11;;;;;;;6.13;0.75;;;8.10;76.00;;;;;;5961753;23;20060;-79
2023/03/27 08:23:37;;;;;;;4.93;0.82;;;8.20;75.30;;;;;;5938677;23;20054;-80
2023/03/27 08:26:03;;;;;;;3.80;0.73;;;8.20;74.90;;;;;;5958559;23;20025;-80
2023/03/27 08:28:30;;;;;;;4.55;0.77;;;8.30;74.80;;;;;;5963000;23;20580;-79
2023/03/27 08:30:56;;;;;;;4.63;0.90;;;8.50;74.80;;;;;;5959260;23;20417;-79
2023/03/27 08:33:22;;;;;;;6.97;1.15;;;8.60;74.50;;;;;;5984081;23;20115;-80
2023/03/27 08:35:48;;;;;;;4.82;0.95;;;8.70;74.20;;;;;;5959521;23;20480;-80
2023/03/27 08:38:14;;;;;;;3.80;0.85;;;8.80;73.90;;;;;;5961539;23;20477;-79
2023/03/27 08:40:40;;;;;;;4.95;0.93;;;8.90;73.90;;;;;;5962998;23;20061;-80
2023/03/27 08:43:06;;;;;;;1.75;0.65;;;9.00;73.90;;;;;;5962042;23;20026;-80
2023/03/27 08:45:45;;;;;;;6.88;1.00;;;9.10;73.70;;;;;;5958816;23;20022;-79
2023/03/27 08:48:18;;;;;;;2.50;0.70;;;9.20;72.70;;;;;;5981003;23;20112;-79
2023/03/27 08:50:47;;;;;;;4.28;0.90;;;9.20;72.30;;;;;;5910075;23;20038;-80
2023/03/27 08:53:29;;;;;;;4.57;0.85;;;9.20;72.50;;;;;;5938717;23;20026;-80
2023/03/27 08:55:55;;;;;;;3.42;0.82;;;9.30;71.80;;;;;;5902810;23;20076;-80
2023/03/27 08:58:20;;;;;;;5.85;1.00;;;9.30;72.30;;;;;;5961118;23;20401;-79
2023/03/27 09:00:51;;;;;;;6.75;1.42;;;9.50;72.20;;;;;;5984995;23;20026;-80
2023/03/27 09:03:31;;;;;;;3.25;0.75;;;9.50;71.70;;;;;;5983817;23;20638;-79
2023/03/27 09:05:59;;;;;;;3.42;0.60;;;9.60;71.00;;;;;;5940956;23;20158;-80
2023/03/27 09:08:33;;;;;;;3.25;0.80;;;9.60;71.40;;;;;;5962309;23;20026;-79
2023/03/27 09:11:04;;;;;;;6.43;0.85;;;9.80;71.20;;;;;;5984744;23;20037;-79
2023/03/27 09:13:40;;;;;;;3.77;0.80;;;10.10;71.40;;;;;;5959701;23;20026;-79
2023/03/27 09:16:16;;;;;;;6.88;1.45;;;10.30;71.20;;;;;;5985112;23;20022;-78
2023/03/27 09:18:46;;;;;;;3.50;0.98;;;10.50;70.40;;;;;;5960190;23;20030;-80
2023/03/27 09:21:44;;;;;;;3.45;0.90;;;10.70;70.20;;;;;;5963698;23;20479;-79
2023/03/27 09:24:26;;;;;;;3.38;0.70;;;10.80;68.10;;;;;;5941291;23;20037;-79
2023/03/27 09:26:51;;;;;;;4.53;0.82;;;10.70;68.20;;;;;;5962490;23;20018;-79
2023/03/27 09:29:22;;;;;;;5.18;0.73;;;10.60;68.60;;;;;;5963544;23;20022;-79
2023/03/27 09:31:48;;;;;;;5.57;0.90;;;10.60;68.70;;;;;;5965068;23;20026;-79
2023/03/27 09:34:18;;;;;;;4.30;1.00;;;10.60;68.70;;;;;;5962563;23;20056;-80
2023/03/27 09:36:43;;;;;;;4.57;0.95;;;10.60;68.60;;;;;;5988756;23;20065;-80
2023/03/27 09:39:21;;;;;;;2.55;0.90;;;10.60;68.30;;;;;;5969320;23;20045;-79
2023/03/27 09:41:55;;;;;;;4.63;0.80;;;10.50;67.40;;;;;;5964074;23;20092;-79
2023/03/27 09:44:29;;;;;;;5.60;1.00;;;10.40;68.00;;;;;;5965213;23;20114;-79
2023/03/27 09:46:59;;;;;;;4.78;0.85;;;10.50;68.40;;;;;;5962821;23;20042;-79
2023/03/27 09:49:26;;;;;;;4.50;1.00;;;10.50;68.30;;;;;;5964298;23;20014;-78
2023/03/27 09:51:55;;;;;;;4.00;0.93;;;10.60;68.80;;;;;;5939890;23;20022;-79
2023/03/27 09:54:27;;;;;;;4.82;1.00;;;10.80;68.60;;;;;;5966031;23;20026;-78
2023/03/27 09:56:57;;;;;;;4.47;1.00;;;10.90;68.00;;;;;;5937289;23;20033;-79
2023/03/27 09:59:23;;;;;;;5.68;0.93;;;11.00;67.60;;;;;;5961848;23;20370;-78
2023/03/27 10:01:50;;;;;;;7.18;1.50;;;11.00;67.00;;;;;;5986616;23;20032;-78
2023/03/27 10:04:18;;;;;;;5.13;1.40;;;11.00;66.60;;;;;;5962705;23;20112;-79
2023/03/27 10:06:43;;;;;;;4.55;1.05;;;11.00;66.40;;;;;;5937662;23;20615;-80
2023/03/27 10:09:21;;;;;;;3.00;0.77;;;10.90;66.30;;;;;;5965573;23;20057;-79
2023/03/27 10:11:48;;;;;;;4.50;0.90;;;10.90;65.50;;;;;;5960823;23;20022;-79
2023/03/27 10:14:16;;;;;;;3.50;0.82;;;10.90;66.10;;;;;;5967763;23;20014;-80
2023/03/27 10:16:42;;;;;;;4.47;1.15;;;10.90;66.10;;;;;;5984896;23;20028;-79
2023/03/27 10:19:17;;;;;;;1.00;0.70;;;11.00;65.60;;;;;;5962670;23;20034;-80
2023/03/27 10:21:43;;;;;;;2.17;0.70;;;11.00;64.80;;;;;;5981394;23;20018;-80
2023/03/27 10:24:20;;;;;;;2.38;0.73;;;11.10;65.10;;;;;;5964100;23;20037;-80
2023/03/27 10:26:46;;;;;;;3.30;0.57;;;11.30;64.20;;;;;;5986392;23;20148;-80
2023/03/27 10:29:26;;;;;;;2.55;0.80;;;11.50;64.80;;;;;;5985254;23;20046;-80
2023/03/27 10:31:54;;;;;;;2.22;0.68;;;11.70;64.20;;;;;;5960688;23;20026;-79
2023/03/27 10:34:36;;;;;;;3.22;1.10;;;11.90;64.40;;;;;;5961618;23;20025;-80
2023/03/27 10:37:03;;;;;;;2.88;1.08;;;12.00;63.30;;;;;;5984162;23;20080;-78
2023/03/27 10:39:32;;;;;;;3.00;0.90;;;12.20;63.90;;;;;;5963538;23;20017;-79
2023/03/27 10:42:02;;;;;;;5.00;1.33;;;12.50;63.70;;;;;;5939426;23;20076;-80
2023/03/27 10:44:28;;;;;;;3.72;1.20;;;12.70;63.50;;;;;;5948110;23;20699;-80
2023/03/27 10:46:53;;;;;;;3.05;0.80;;;12.80;63.00;;;;;;5939088;23;20038;-79
2023/03/27 10:50:01;;;;;;;6.18;1.13;;;12.90;62.60;;;;;;5962088;23;20018;-79
2023/03/27 10:53:00;;;;;;;2.65;0.90;;;12.70;60.90;;;;;;5964153;23;20018;-80
2023/03/27 10:55:50;;;;;;;5.15;0.80;;;12.60;61.30;;;;;;5957211;23;20068;-80
2023/03/27 10:58:25;;;;;;;3.22;0.80;;;12.40;62.10;;;;;;5935955;23;20026;-81
2023/03/27 11:00:57;;;;;;;2.33;0.70;;;12.20;62.60;;;;;;5960702;23;20026;-80
2023/03/27 11:03:30;;;;;;;3.25;0.90;;;12.10;62.70;;;;;;5981921;23;20026;-80
2023/03/27 11:05:56;;;;;;;6.57;0.93;;;11.90;63.10;;;;;;5945588;23;20029;-80
2023/03/27 11:08:31;;;;;;;7.82;1.17;;;11.90;63.80;;;;;;5960865;23;20408;-80
2023/03/27 11:10:59;;;;;;;3.13;1.10;;;12.10;64.40;;;;;;5959278;23;20104;-80
2023/03/27 11:13:30;;;;;;;3.42;0.90;;;12.30;64.60;;;;;;5960534;23;20748;-80
2023/03/27 11:16:11;;;;;;;3.17;0.95;;;12.50;64.40;;;;;;5959893;23;20720;-80
2023/03/27 11:18:39;;;;;;;2.75;1.02;;;12.70;63.80;;;;;;5981349;23;20022;-80
2023/03/27 11:21:11;;;;;;;3.03;1.02;;;12.90;63.80;;;;;;5931748;23;20029;-81
2023/03/27 11:23:41;;;;;;;4.38;0.85;;;13.00;63.40;;;;;;5962972;23;20025;-80
2023/03/27 11:26:08;;;;;;;3.70;1.40;;;13.00;63.00;;;;;;5981372;23;20026;-80
2023/03/27 11:28:47;;;;;;;4.68;1.38;;;13.00;62.70;;;;;;5961360;23;20026;-80
2023/03/27 11:31:25;;;;;;;4.72;0.88;;;12.80;61.20;;;;;;5983376;23;20096;-80
2023/03/27 11:33:53;;;;;;;2.17;0.70;;;12.60;61.60;;;;;;5980964;23;20033;-80
2023/03/27 11:36:21;;;;;;;2.53;0.90;;;12.40;62.40;;;;;;5959890;23;20026;-80
2023/03/27 11:39:38;;;;;;;2.63;1.08;;;12.20;62.30;;;;;;5959389;23;20029;-80
2023/03/27 11:42:25;;;;;;;2.75;0.88;;;12.00;62.00;;;;;;5932206;23;20564;-81
2023/03/27 11:44:51;;;;;;;1.10;0.55;;;11.70;62.80;;;;;;5983607;23;20630;-82
2023/03/27 11:47:25;;;;;;;1.90;0.52;;;11.60;63.30;;;;;;5988835;23;20034;-81
2023/03/27 11:50:00;;;;;;;1.13;0.88;;;11.60;63.40;;;;;;5963471;23;20025;-80
2023/03/27 11:52:37;;;;;;;1.63;0.63;;;11.50;63.60;;;;;;5962897;23;20022;-80
2023/03/27 11:55:16;;;;;;;1.58;0.65;;;11.40;63.50;;;;;;5959747;23;20097;-80
2023/03/27 11:58:16;;;;;;;3.22;0.90;;;11.30;64.00;;;;;;5985018;23;20045;-80
2023/03/27 12:00:57;;;;;;;1.33;0.93;;;11.20;64.70;;;;;;5959678;23;20608;-80
2023/03/27 12:03:51;;;;;;;2.33;0.90;;;11.40;65.30;;;;;;5961041;23;20109;-80
2023/03/27 12:06:32;;;;;;;3.72;0.82;;;11.60;65.10;;;;;;5980445;23;20022;-80
2023/03/27 12:09:05;;;;;;;4.18;0.80;;;11.80;65.10;;;;;;5962826;23;20022;-80
2023/03/27 12:11:31;;;;;;;4.57;0.80;;;11.90;65.00;;;;;;5947790;23;20042;-80
2023/03/27 12:14:02;;;;;;;2.47;0.82;;;12.00;64.50;;;;;;5984783;23;20029;-80
2023/03/27 12:16:53;;;;;;;2.58;0.80;;;12.00;64.40;;;;;;5976920;23;20132;-81
2023/03/27 12:19:27;;;;;;;1.75;0.80;;;12.00;63.60;;;;;;5981939;23;20068;-80
2023/03/27 12:22:16;;;;;;;3.97;0.60;;;11.90;63.70;;;;;;5983422;23;20483;-80
2023/03/27 12:25:03;;;;;;;2.47;0.90;;;11.70;63.30;;;;;;5984199;23;20641;-80
2023/03/27 12:27:54;;;;;;;2.85;1.10;;;11.70;64.00;;;;;;5952770;23;20024;-80
2023/03/27 12:30:30;;;;;;;1.98;0.82;;;11.90;63.70;;;;;;5984276;23;20104;-80
2023/03/27 12:33:20;;;;;;;4.18;0.85;;;12.00;64.00;;;;;;5986092;23;20149;-80
2023/03/27 12:35:49;;;;;;;1.80;0.70;;;12.10;63.70;;;;;;5960205;23;20504;-80
2023/03/27 12:38:29;;;;;;;3.13;0.82;;;12.30;63.30;;;;;;5940843;23;20092;-79
2023/03/27 12:41:05;;;;;;;1.50;0.75;;;12.50;62.40;;;;;;5958467;23;20026;-80
2023/03/27 12:43:40;;;;;;;2.42;1.90;;;12.70;62.50;;;;;;5984890;23;20592;-80
2023/03/27 12:46:19;;;;;;;1.88;1.00;;;12.80;62.00;;;;;;5980684;23;20034;-80
2023/03/27 12:48:47;;;;;;;0.82;0.55;;;13.00;62.10;;;;;;5961179;23;20028;-80
2023/03/27 12:51:14;;;;;;;1.70;0.70;;;13.20;61.80;;;;;;5941318;23;20045;-80
2023/03/27 12:53:40;;;;;;;4.82;0.80;;;13.40;61.10;;;;;;5971643;23;20052;-80
2023/03/27 12:56:18;;;;;;;1.02;0.63;;;13.60;60.80;;;;;;5983685;23;20468;-80
2023/03/27 12:58:44;;;;;;;1.67;0.70;;;13.80;59.90;;;;;;5963144;23;20026;-79
2023/03/27 13:01:11;;;;;;;3.80;0.80;;;14.00;60.10;;;;;;5983727;23;20045;-79
2023/03/27 13:03:59;;;;;;;2.42;0.93;;;14.20;60.00;;;;;;5938662;23;20031;-81
2023/03/27 13:06:39;;;;;;;2.80;0.70;;;14.40;58.10;;;;;;5960073;23;20041;-80
2023/03/27 13:09:15;;;;;;;3.58;0.60;;;14.40;58.30;;;;;;5959478;23;20089;-80
2023/03/27 13:12:15;;;;;;;1.70;0.43;;;14.50;58.40;;;;;;5944637;23;20026;-80